Time;durP1;ratioP1;P1;durP2;ratioP2;P2;SDS_P1;SDS_P2;PMS_P1;PMS_P2;Temp;Humidity;BMP_temperature;BMP_pressure;BME280_temperature;BME280_humidity;BME280_pressure;Samples;Min_cycle;Max_cycle;Signal;HPM_P1;HPM_P2
2021/04/11 00:01:11;;;;;;;2.23;1.37;;;;;;;;;;10351771;28;20036;-63
2021/04/11 00:06:08;;;;;;;2.60;0.80;;;;;;;;;;10346308;28;20339;-61
2021/04/11 00:11:05;;;;;;;2.00;0.80;;;;;;;;;;10364689;28;20041;-62
2021/04/11 00:16:03;;;;;;;0.73;0.73;;;;;;;;;;10360673;28;20110;-61
2021/04/11 00:21:03;;;;;;;1.25;0.95;;;;;;;;;;10371667;28;20386;-61
2021/04/11 00:26:01;;;;;;;2.80;1.15;;;;;;;;;;10363184;28;20488;-62
2021/04/11 00:30:59;;;;;;;2.08;0.80;;;;;;;;;;10378199;28;20043;-62
2021/04/11 00:35:58;;;;;;;0.73;0.73;;;;;;;;;;10353272;28;20039;-63
2021/04/11 00:41:01;;;;;;;1.17;0.85;;;;;;;;;;10311759;28;20120;-61
2021/04/11 00:45:58;;;;;;;1.52;0.70;;;;;;;;;;10348409;28;20041;-62
2021/04/11 00:50:58;;;;;;;1.50;0.70;;;;;;;;;;10370086;28;20486;-63
2021/04/11 00:55:56;;;;;;;1.05;0.73;;;;;;;;;;10352962;28;20600;-63
2021/04/11 01:00:54;;;;;;;1.38;0.77;;;;;;;;;;10348977;28;20037;-62
2021/04/11 01:05:52;;;;;;;4.95;1.48;;;;;;;;;;10362259;28;20029;-63
2021/04/11 01:10:56;;;;;;;3.80;1.17;;;;;;;;;;10340762;28;20043;-63
2021/04/11 01:15:53;;;;;;;1.40;0.90;;;;;;;;;;10355415;28;20045;-63
2021/04/11 01:20:52;;;;;;;3.17;0.75;;;;;;;;;;10357182;28;20031;-61
2021/04/11 01:25:51;;;;;;;1.52;0.80;;;;;;;;;;10350509;28;20343;-62
2021/04/11 01:30:49;;;;;;;1.17;0.98;;;;;;;;;;10375760;28;20065;-61
2021/04/11 01:35:50;;;;;;;1.75;0.70;;;;;;;;;;10352284;28;20060;-61
2021/04/11 01:40:54;;;;;;;2.45;1.23;;;;;;;;;;10342754;28;20815;-63
2021/04/11 01:45:55;;;;;;;3.65;1.30;;;;;;;;;;10360275;28;20048;-62
2021/04/11 01:50:54;;;;;;;3.58;1.35;;;;;;;;;;10361253;28;20037;-62
2021/04/11 01:55:55;;;;;;;1.35;1.25;;;;;;;;;;10355165;28;20041;-61
2021/04/11 02:01:08;;;;;;;1.05;0.82;;;;;;;;;;10339895;28;20498;-63
2021/04/11 02:06:07;;;;;;;0.95;0.75;;;;;;;;;;10362077;28;20138;-63
2021/04/11 02:11:06;;;;;;;1.73;1.08;;;;;;;;;;10347526;28;20089;-62
2021/04/11 02:16:08;;;;;;;1.33;0.80;;;;;;;;;;10369471;28;20477;-62
2021/04/11 02:21:09;;;;;;;1.88;0.90;;;;;;;;;;10391026;28;20437;-62
2021/04/11 02:26:08;;;;;;;1.13;0.98;;;;;;;;;;10328675;28;20053;-62
2021/04/11 02:31:17;;;;;;;0.90;0.90;;;;;;;;;;10342206;28;20040;-61
2021/04/11 02:36:19;;;;;;;1.52;1.00;;;;;;;;;;10352294;28;20044;-62
2021/04/11 02:41:18;;;;;;;1.58;0.70;;;;;;;;;;10361670;28;20461;-63
2021/04/11 02:46:16;;;;;;;1.75;1.23;;;;;;;;;;10357657;28;20047;-62
2021/04/11 02:51:14;;;;;;;0.95;0.88;;;;;;;;;;10358128;28;20040;-62
2021/04/11 02:56:18;;;;;;;1.67;1.52;;;;;;;;;;10350107;28;20092;-61
2021/04/11 03:01:23;;;;;;;1.13;1.02;;;;;;;;;;10371811;28;20032;-63
2021/04/11 03:06:21;;;;;;;1.05;0.88;;;;;;;;;;10332759;28;20131;-63
2021/04/11 03:11:33;;;;;;;2.22;1.25;;;;;;;;;;10361818;28;20489;-61
2021/04/11 03:16:32;;;;;;;1.15;1.05;;;;;;;;;;10337009;28;20345;-62
2021/04/11 03:21:33;;;;;;;0.95;0.82;;;;;;;;;;10354635;28;20039;-63
2021/04/11 03:26:35;;;;;;;1.63;1.05;;;;;;;;;;10325941;28;20045;-61
2021/04/11 03:31:42;;;;;;;6.13;1.48;;;;;;;;;;10351500;28;20044;-62
2021/04/11 03:36:40;;;;;;;0.80;0.80;;;;;;;;;;10365391;28;20045;-61
2021/04/11 03:41:38;;;;;;;;;;;;;;;;;;10347788;28;20604;-62
2021/04/11 03:46:45;;;;;;;1.45;1.00;;;;;;;;;;10354158;28;20002;-62
2021/04/11 03:51:45;;;;;;;1.58;0.63;;;;;;;;;;10369858;28;20116;-61
2021/04/11 03:56:45;;;;;;;0.43;0.43;;;;;;;;;;10341747;28;20132;-63
2021/04/11 04:01:48;;;;;;;0.35;0.35;;;;;;;;;;10370417;28;20070;-61
2021/04/11 04:07:03;;;;;;;1.33;1.17;;;;;;;;;;10358380;28;20802;-61
2021/04/11 04:12:27;;;;;;;0.55;0.55;;;;;;;;;;10353567;28;20040;-62
2021/04/11 04:17:32;;;;;;;1.60;1.15;;;;;;;;;;10321902;28;20043;-62
2021/04/11 04:22:37;;;;;;;2.10;1.33;;;;;;;;;;10359240;28;20053;-63
2021/04/11 04:28:02;;;;;;;1.65;1.52;;;;;;;;;;10365938;28;20571;-62
2021/04/11 04:33:08;;;;;;;2.17;1.95;;;;;;;;;;10338550;28;20094;-62
2021/04/11 04:38:26;;;;;;;0.57;0.43;;;;;;;;;;10362806;28;20101;-61
2021/04/11 04:43:41;;;;;;;4.85;2.25;;;;;;;;;;10350348;28;20043;-62
2021/04/11 04:48:45;;;;;;;3.33;2.40;;;;;;;;;;10352731;28;20724;-62
2021/04/11 04:53:52;;;;;;;0.70;0.70;;;;;;;;;;10335112;28;20049;-61
2021/04/11 04:58:58;;;;;;;4.72;3.20;;;;;;;;;;10335826;28;20420;-63
2021/04/11 05:04:00;;;;;;;2.22;1.35;;;;;;;;;;10359761;28;20021;-63
2021/04/11 05:09:08;;;;;;;3.65;2.88;;;;;;;;;;10348497;28;20072;-62
2021/04/11 05:14:13;;;;;;;1.23;0.80;;;;;;;;;;10356369;28;20123;-60
2021/04/11 05:19:13;;;;;;;2.13;1.33;;;;;;;;;;10371747;28;20040;-61
2021/04/11 05:24:26;;;;;;;3.33;2.58;;;;;;;;;;10361245;28;20036;-62
2021/04/11 05:29:46;;;;;;;2.00;1.23;;;;;;;;;;10353864;28;20321;-64
2021/04/11 05:34:44;;;;;;;5.90;4.30;;;;;;;;;;10359597;28;20028;-63
2021/04/11 05:40:11;;;;;;;5.50;3.20;;;;;;;;;;10346575;28;20040;-62
2021/04/11 05:45:24;;;;;;;6.40;3.58;;;;;;;;;;10327372;28;21377;-61
2021/04/11 05:50:24;;;;;;;2.53;2.08;;;;;;;;;;10337117;23;20045;-66
2021/04/11 05:55:23;;;;;;;5.63;3.67;;;;;;;;;;10352880;28;20401;-66
2021/04/11 06:00:20;;;;;;;8.73;4.55;;;;;;;;;;10397878;28;21119;-67
2021/04/11 06:05:29;;;;;;;6.23;4.80;;;;;;;;;;10414882;28;20044;-65
2021/04/11 06:10:38;;;;;;;3.90;2.63;;;;;;;;;;10391704;28;20091;-67
2021/04/11 06:15:54;;;;;;;11.77;6.13;;;;;;;;;;10392993;28;20036;-66
2021/04/11 06:21:05;;;;;;;3.35;2.38;;;;;;;;;;10209430;28;20034;-62
2021/04/11 06:26:11;;;;;;;10.80;6.43;;;;;;;;;;10221770;28;20307;-62
2021/04/11 06:31:16;;;;;;;8.93;6.32;;;;;;;;;;10315311;23;20135;-66
2021/04/11 06:36:16;;;;;;;11.63;6.72;;;;;;;;;;10364739;28;20540;-64
2021/04/11 06:41:32;;;;;;;13.02;7.93;;;;;;;;;;10380866;28;20036;-64
2021/04/11 06:46:49;;;;;;;3.20;2.25;;;;;;;;;;10409889;28;20507;-64
2021/04/11 06:51:49;;;;;;;15.48;7.63;;;;;;;;;;10410114;28;20047;-64
2021/04/11 06:57:02;;;;;;;6.70;3.90;;;;;;;;;;10397041;28;20048;-64
2021/04/11 07:02:05;;;;;;;6.28;3.25;;;;;;;;;;10274111;23;20155;-66
2021/04/11 07:07:18;;;;;;;6.07;3.95;;;;;;;;;;10267557;28;20434;-66
2021/04/11 07:12:18;;;;;;;5.93;3.72;;;;;;;;;;10284071;23;20042;-63
2021/04/11 07:17:22;;;;;;;5.65;2.67;;;;;;;;;;10268078;28;20517;-63
2021/04/11 07:22:45;;;;;;;6.80;3.53;;;;;;;;;;10280974;28;21467;-62
2021/04/11 07:28:02;;;;;;;4.25;3.25;;;;;;;;;;10233180;28;20065;-63
2021/04/11 07:33:18;;;;;;;4.65;3.03;;;;;;;;;;10287176;28;20499;-64
2021/04/11 07:38:30;;;;;;;3.60;2.47;;;;;;;;;;10282335;28;20064;-62
2021/04/11 07:43:27;;;;;;;4.35;2.88;;;;;;;;;;10260999;28;20033;-63
2021/04/11 07:48:30;;;;;;;3.87;2.33;;;;;;;;;;10285726;28;20494;-63
2021/04/11 07:53:31;;;;;;;3.45;1.95;;;;;;;;;;10285309;28;20118;-63
2021/04/11 07:58:34;;;;;;;5.25;3.05;;;;;;;;;;10264455;28;20033;-65
2021/04/11 08:03:31;;;;;;;4.47;2.50;;;;;;;;;;10271935;28;20033;-65
2021/04/11 08:08:32;;;;;;;10.40;9.07;;;;;;;;;;10272091;28;20044;-63
2021/04/11 08:13:35;;;;;;;14.63;13.07;;;;;;;;;;10280655;28;20486;-63
2021/04/11 08:18:41;;;;;;;2.47;1.70;;;;;;;;;;10281944;28;20184;-64
2021/04/11 08:23:39;;;;;;;2.42;2.03;;;;;;;;;;10281941;28;20038;-64
2021/04/11 08:28:55;;;;;;;2.53;2.03;;;;;;;;;;10272168;28;20040;-63
2021/04/11 08:34:25;;;;;;;3.90;2.20;;;;;;;;;;10281135;28;20036;-64
2021/04/11 08:39:38;;;;;;;2.35;1.83;;;;;;;;;;10233979;28;20041;-64
2021/04/11 08:44:43;;;;;;;3.50;2.13;;;;;;;;;;10260464;28;20112;-65
2021/04/11 08:49:45;;;;;;;10.63;2.38;;;;;;;;;;10248524;28;20033;-66
2021/04/11 08:55:00;;;;;;;4.55;2.28;;;;;;;;;;10287279;28;20489;-65
2021/04/11 09:00:12;;;;;;;4.70;2.28;;;;;;;;;;10285122;28;20029;-64
2021/04/11 09:05:26;;;;;;;2.30;1.50;;;;;;;;;;10289286;28;20041;-63
2021/04/11 09:10:33;;;;;;;1.08;0.85;;;;;;;;;;10285734;28;20064;-64
2021/04/11 09:15:30;;;;;;;2.60;1.67;;;;;;;;;;10277373;28;20376;-64
2021/04/11 09:20:28;;;;;;;7.83;1.40;;;;;;;;;;10275776;28;20034;-65
2021/04/11 09:25:26;;;;;;;1.07;0.90;;;;;;;;;;10260639;28;20568;-63
2021/04/11 09:30:26;;;;;;;2.95;1.50;;;;;;;;;;10251288;28;20481;-65
2021/04/11 09:35:33;;;;;;;2.97;1.50;;;;;;;;;;10275555;28;20045;-65
2021/04/11 09:40:41;;;;;;;4.55;1.35;;;;;;;;;;10263528;28;20065;-65
2021/04/11 09:45:42;;;;;;;2.55;0.90;;;;;;;;;;10265825;28;20484;-65
2021/04/11 09:50:39;;;;;;;2.00;1.17;;;;;;;;;;10281961;28;20044;-65
2021/04/11 09:55:40;;;;;;;3.60;1.20;;;;;;;;;;10284115;28;20029;-65
2021/04/11 10:00:47;;;;;;;3.00;0.80;;;;;;;;;;10263441;28;20025;-65
2021/04/11 10:05:45;;;;;;;2.55;1.30;;;;;;;;;;10289345;28;20030;-65
2021/04/11 10:11:01;;;;;;;0.33;0.33;;;;;;;;;;10274530;28;20040;-65
2021/04/11 10:16:10;;;;;;;0.68;0.57;;;;;;;;;;10288323;28;20561;-65
2021/04/11 10:21:23;;;;;;;1.08;0.70;;;;;;;;;;10267239;28;20057;-65
2021/04/11 10:26:28;;;;;;;0.55;0.50;;;;;;;;;;10286492;28;20102;-65
2021/04/11 10:31:32;;;;;;;4.00;0.55;;;;;;;;;;10266273;28;20037;-65
2021/04/11 10:36:34;;;;;;;0.77;0.52;;;;;;;;;;10266698;28;20091;-65
2021/04/11 10:41:44;;;;;;;0.85;0.60;;;;;;;;;;10280290;28;20041;-64
2021/04/11 10:46:55;;;;;;;0.95;0.50;;;;;;;;;;10285458;28;20055;-64
2021/04/11 10:51:53;;;;;;;0.52;0.52;;;;;;;;;;10278180;28;20065;-64
2021/04/11 10:57:03;;;;;;;0.63;0.50;;;;;;;;;;10278490;28;20068;-62
2021/04/11 11:02:06;;;;;;;0.20;0.20;;;;;;;;;;10277042;28;20033;-63
2021/04/11 11:07:22;;;;;;;0.32;0.20;;;;;;;;;;10274637;28;20037;-63
2021/04/11 11:12:27;;;;;;;2.63;0.82;;;;;;;;;;10278951;28;20025;-61
2021/04/11 11:17:43;;;;;;;1.23;0.30;;;;;;;;;;10284328;28;20037;-62
2021/04/11 11:22:49;;;;;;;3.10;0.63;;;;;;;;;;10280190;28;20053;-63
2021/04/11 11:28:12;;;;;;;1.25;0.45;;;;;;;;;;10251239;28;20402;-63
2021/04/11 11:33:09;;;;;;;1.83;0.60;;;;;;;;;;10254033;28;20064;-63
2021/04/11 11:38:19;;;;;;;0.50;0.40;;;;;;;;;;10425812;27;20494;-62
2021/04/11 11:43:31;;;;;;;0.32;0.30;;;;;;;;;;10347350;28;20039;-64
2021/04/11 11:48:28;;;;;;;0.20;0.20;;;;;;;;;;10301680;28;20175;-64
2021/04/11 11:53:29;;;;;;;2.07;0.60;;;;;;;;;;10302667;28;20033;-64
2021/04/11 11:58:35;;;;;;;0.30;0.30;;;;;;;;;;10308257;28;20032;-63
2021/04/11 12:03:34;;;;;;;0.65;0.52;;;;;;;;;;10307811;28;20088;-64
2021/04/11 12:08:52;;;;;;;1.42;0.40;;;;;;;;;;10311213;28;20029;-63
2021/04/11 12:13:56;;;;;;;0.90;0.50;;;;;;;;;;10313966;28;20395;-64
2021/04/11 12:18:59;;;;;;;0.43;0.43;;;;;;;;;;10306046;28;20029;-64
2021/04/11 12:23:57;;;;;;;0.35;0.35;;;;;;;;;;10324005;28;20405;-64
2021/04/11 12:29:03;;;;;;;1.13;0.50;;;;;;;;;;10340345;28;20037;-64
2021/04/11 12:34:19;;;;;;;0.45;0.32;;;;;;;;;;10343129;28;20068;-64
2021/04/11 12:39:22;;;;;;;0.68;0.40;;;;;;;;;;10344382;28;21956;-64
2021/04/11 12:44:24;;;;;;;1.30;0.50;;;;;;;;;;10344652;28;20154;-64
2021/04/11 12:49:21;;;;;;;3.80;1.95;;;;;;;;;;10320412;28;20175;-64
2021/04/11 12:54:25;;;;;;;3.50;0.70;;;;;;;;;;10319781;28;20124;-64
2021/04/11 12:59:40;;;;;;;0.40;0.40;;;;;;;;;;10320489;28;20040;-65
2021/04/11 13:04:39;;;;;;;0.57;0.47;;;;;;;;;;10323936;28;20409;-65
2021/04/11 13:09:48;;;;;;;3.03;1.10;;;;;;;;;;10317139;28;20160;-63
2021/04/11 13:14:58;;;;;;;1.92;0.63;;;;;;;;;;10324129;28;20132;-65
2021/04/11 13:20:01;;;;;;;2.92;0.75;;;;;;;;;;10317737;28;20032;-65
2021/04/11 13:24:59;;;;;;;2.13;0.88;;;;;;;;;;10323792;28;20382;-64
2021/04/11 13:30:10;;;;;;;2.70;0.97;;;;;;;;;;10323158;28;20032;-65
2021/04/11 13:35:13;;;;;;;0.57;0.55;;;;;;;;;;10304863;28;20409;-64
2021/04/11 13:40:13;;;;;;;3.00;0.77;;;;;;;;;;10318858;28;20128;-64
2021/04/11 13:45:26;;;;;;;0.88;0.30;;;;;;;;;;10314193;28;20124;-63
2021/04/11 13:50:34;;;;;;;1.05;0.50;;;;;;;;;;10319001;28;20033;-64
2021/04/11 13:55:33;;;;;;;0.40;0.32;;;;;;;;;;10293461;28;20042;-63
2021/04/11 14:00:37;;;;;;;0.45;0.40;;;;;;;;;;10277730;28;20098;-62
2021/04/11 14:05:35;;;;;;;3.10;0.52;;;;;;;;;;10304789;28;20033;-62
2021/04/11 14:10:32;;;;;;;;;;;;;;;;;;10271285;28;20128;-64
2021/04/11 14:15:32;;;;;;;0.52;0.50;;;;;;;;;;10255113;28;19984;-63
2021/04/11 14:20:33;;;;;;;2.20;0.60;;;;;;;;;;10258423;28;20040;-63
2021/04/11 14:25:42;;;;;;;0.55;0.20;;;;;;;;;;10276904;28;20048;-63
2021/04/11 14:30:54;;;;;;;0.80;0.25;;;;;;;;;;10280590;28;20497;-62
2021/04/11 14:36:02;;;;;;;1.08;0.57;;;;;;;;;;10281296;28;20442;-63
2021/04/11 14:41:00;;;;;;;1.85;0.43;;;;;;;;;;10279938;28;20041;-63
2021/04/11 14:46:05;;;;;;;0.77;0.40;;;;;;;;;;10307893;28;20028;-63
2021/04/11 14:51:21;;;;;;;2.85;0.43;;;;;;;;;;10318062;28;20060;-61
2021/04/11 14:56:26;;;;;;;3.53;1.17;;;;;;;;;;10302305;28;20045;-62
2021/04/11 15:01:27;;;;;;;0.60;0.55;;;;;;;;;;10314293;28;20049;-63
2021/04/11 15:06:39;;;;;;;1.55;0.40;;;;;;;;;;10313389;28;20048;-63
2021/04/11 15:11:41;;;;;;;0.30;0.30;;;;;;;;;;10322148;28;20067;-63
2021/04/11 15:16:59;;;;;;;3.58;0.90;;;;;;;;;;10324710;28;20044;-63
2021/04/11 15:21:59;;;;;;;2.47;0.30;;;;;;;;;;10314803;28;20029;-63
2021/04/11 15:27:14;;;;;;;1.80;0.52;;;;;;;;;;10321991;28;20501;-63
2021/04/11 15:32:17;;;;;;;1.45;0.45;;;;;;;;;;10317966;28;20502;-63
2021/04/11 15:37:33;;;;;;;1.00;0.52;;;;;;;;;;10314567;28;20029;-63
2021/04/11 15:42:49;;;;;;;3.70;1.30;;;;;;;;;;10311839;28;20128;-63
2021/04/11 15:47:54;;;;;;;1.70;0.75;;;;;;;;;;10271545;28;20443;-62
2021/04/11 15:52:54;;;;;;;0.45;0.45;;;;;;;;;;10279864;28;20171;-62
2021/04/11 15:58:03;;;;;;;1.08;0.22;;;;;;;;;;10309590;28;20033;-63
2021/04/11 16:03:04;;;;;;;2.10;0.50;;;;;;;;;;10309470;28;20132;-64
2021/04/11 16:08:03;;;;;;;11.48;3.03;;;;;;;;;;10316708;28;20407;-63
2021/04/11 16:13:01;;;;;;;15.18;3.63;;;;;;;;;;10319868;28;20064;-63
2021/04/11 16:18:01;;;;;;;14.70;6.43;;;;;;;;;;10298872;28;20129;-63
2021/04/11 16:23:01;;;;;;;18.75;6.07;;;;;;;;;;10326460;28;20056;-62
2021/04/11 16:27:58;;;;;;;8.75;3.25;;;;;;;;;;10310052;28;20029;-63
2021/04/11 16:33:15;;;;;;;4.40;1.53;;;;;;;;;;10321698;28;20029;-63
2021/04/11 16:38:12;;;;;;;8.90;3.22;;;;;;;;;;10320214;28;20033;-63
2021/04/11 16:43:16;;;;;;;3.43;1.00;;;;;;;;;;10326853;28;20041;-63
2021/04/11 16:48:24;;;;;;;1.13;1.02;;;;;;;;;;10328279;28;20755;-65
2021/04/11 16:53:36;;;;;;;3.33;0.73;;;;;;;;;;10318954;28;20506;-63
2021/04/11 16:58:39;;;;;;;9.73;1.17;;;;;;;;;;10322302;28;20033;-63
2021/04/11 17:03:48;;;;;;;1.20;0.93;;;;;;;;;;10303857;28;20493;-63
2021/04/11 17:08:46;;;;;;;;;;;;;;;;;;10324854;28;20033;-64
2021/04/11 17:14:03;;;;;;;6.82;1.02;;;;;;;;;;10321872;28;19917;-63
2021/04/11 17:19:04;;;;;;;1.38;0.77;;;;;;;;;;10314161;28;20283;-63
2021/04/11 17:24:12;;;;;;;2.78;0.95;;;;;;;;;;10313479;28;20085;-63
2021/04/11 17:29:11;;;;;;;2.67;0.50;;;;;;;;;;10298752;28;20517;-63
2021/04/11 17:34:18;;;;;;;2.65;0.63;;;;;;;;;;10309738;28;20040;-62
2021/04/11 17:39:17;;;;;;;1.63;0.88;;;;;;;;;;10321148;28;20606;-61
2021/04/11 17:44:33;;;;;;;4.88;0.90;;;;;;;;;;10308695;28;20402;-64
2021/04/11 17:49:39;;;;;;;1.95;0.70;;;;;;;;;;10320277;28;20448;-63
2021/04/11 17:55:12;;;;;;;1.83;0.50;;;;;;;;;;10313759;28;20804;-59
2021/04/11 18:00:13;;;;;;;0.93;0.30;;;;;;;;;;10240877;28;20451;-63
2021/04/11 18:05:11;;;;;;;2.28;0.50;;;;;;;;;;10298080;28;20049;-60
2021/04/11 18:10:08;;;;;;;1.60;0.40;;;;;;;;;;10297181;28;20348;-64
2021/04/11 18:15:13;;;;;;;1.50;0.90;;;;;;;;;;10255355;28;20617;-63
2021/04/11 18:20:11;;;;;;;0.65;0.57;;;;;;;;;;10257587;28;20033;-63
2021/04/11 18:25:11;;;;;;;1.40;0.50;;;;;;;;;;10299469;28;20033;-61
2021/04/11 18:30:14;;;;;;;5.60;0.90;;;;;;;;;;10317036;28;20399;-61
2021/04/11 18:35:19;;;;;;;0.57;0.50;;;;;;;;;;10314854;28;20170;-63
2021/04/11 18:40:23;;;;;;;2.45;0.43;;;;;;;;;;10311884;28;20520;-61
2021/04/11 18:45:25;;;;;;;1.50;0.57;;;;;;;;;;10310259;28;20025;-61
2021/04/11 18:50:35;;;;;;;2.20;0.60;;;;;;;;;;10319687;28;20037;-60
2021/04/11 18:55:52;;;;;;;2.60;0.80;;;;;;;;;;10316881;28;20029;-59
2021/04/11 19:00:56;;;;;;;2.00;0.95;;;;;;;;;;10310774;28;20033;-59
2021/04/11 19:05:53;;;;;;;1.75;0.68;;;;;;;;;;10306190;28;20087;-61
2021/04/11 19:10:57;;;;;;;0.43;0.40;;;;;;;;;;10306055;28;20394;-61
2021/04/11 19:15:55;;;;;;;1.55;0.30;;;;;;;;;;10303754;28;20039;-60
2021/04/11 19:21:11;;;;;;;2.15;0.50;;;;;;;;;;10310683;28;20028;-61
2021/04/11 19:26:27;;;;;;;1.48;0.65;;;;;;;;;;10311314;28;20103;-60
2021/04/11 19:31:40;;;;;;;0.57;0.40;;;;;;;;;;10309087;28;20889;-61
2021/04/11 19:36:38;;;;;;;1.42;0.50;;;;;;;;;;10310432;28;20087;-60
2021/04/11 19:41:54;;;;;;;1.67;0.50;;;;;;;;;;10312693;28;20358;-59
2021/04/11 19:47:02;;;;;;;2.05;0.40;;;;;;;;;;10312123;28;20525;-58
2021/04/11 19:52:18;;;;;;;1.85;0.68;;;;;;;;;;10318731;28;20063;-59
2021/04/11 19:57:30;;;;;;;3.20;0.73;;;;;;;;;;10324383;28;20128;-59
2021/04/11 20:02:46;;;;;;;2.08;0.68;;;;;;;;;;10313846;28;20033;-59
2021/04/11 20:07:53;;;;;;;1.35;0.30;;;;;;;;;;10271880;28;20526;-61
2021/04/11 20:13:08;;;;;;;1.40;0.22;;;;;;;;;;10275758;28;20029;-60
2021/04/11 20:18:17;;;;;;;0.32;0.32;;;;;;;;;;10281631;28;20065;-60
2021/04/11 20:23:20;;;;;;;1.40;0.27;;;;;;;;;;10310213;28;20044;-61
2021/04/11 20:28:50;;;;;;;1.83;0.30;;;;;;;;;;10318653;28;20087;-61
2021/04/11 20:33:47;;;;;;;0.40;0.30;;;;;;;;;;10279961;28;20506;-61
2021/04/11 20:38:50;;;;;;;2.60;0.50;;;;;;;;;;10328052;28;20446;-58
2021/04/11 20:44:05;;;;;;;0.57;0.40;;;;;;;;;;10319866;28;20760;-60
2021/04/11 20:49:05;;;;;;;0.30;0.20;;;;;;;;;;10314554;28;20029;-59
2021/04/11 20:54:06;;;;;;;0.77;0.38;;;;;;;;;;10309928;28;20041;-58
2021/04/11 20:59:03;;;;;;;4.28;0.90;;;;;;;;;;10323668;28;20078;-61
2021/04/11 21:04:19;;;;;;;0.73;0.53;;;;;;;;;;10326380;28;20033;-61
2021/04/11 21:09:36;;;;;;;2.70;0.43;;;;;;;;;;10320325;28;20459;-58
2021/04/11 21:14:38;;;;;;;3.03;0.75;;;;;;;;;;10320884;28;20502;-61
2021/04/11 21:19:36;;;;;;;0.20;0.20;;;;;;;;;;10319006;28;20049;-59
2021/04/11 21:24:36;;;;;;;0.23;0.23;;;;;;;;;;10322757;28;20042;-60
2021/04/11 21:29:56;;;;;;;0.17;0.17;;;;;;;;;;10317920;28;20447;-59
2021/04/11 21:34:53;;;;;;;1.65;0.30;;;;;;;;;;10313628;28;20048;-60
2021/04/11 21:39:54;;;;;;;0.30;0.30;;;;;;;;;;10323498;28;20048;-61
2021/04/11 21:44:59;;;;;;;2.72;0.30;;;;;;;;;;10321679;28;20502;-59
2021/04/11 21:50:11;;;;;;;0.17;0.17;;;;;;;;;;10320208;28;20029;-59
2021/04/11 21:55:09;;;;;;;1.13;0.50;;;;;;;;;;10321463;28;20045;-61
2021/04/11 22:00:09;;;;;;;0.20;0.20;;;;;;;;;;10322233;28;20136;-61
2021/04/11 22:05:07;;;;;;;0.32;0.32;;;;;;;;;;10321649;28;20609;-58
2021/04/11 22:10:10;;;;;;;0.30;0.20;;;;;;;;;;10324792;28;20123;-59
2021/04/11 22:15:16;;;;;;;2.50;0.60;;;;;;;;;;10324682;28;20185;-60
2021/04/11 22:20:16;;;;;;;8.25;0.35;;;;;;;;;;10318555;28;20128;-60
2021/04/11 22:25:17;;;;;;;0.20;0.20;;;;;;;;;;10318247;28;20051;-61
2021/04/11 22:30:21;;;;;;;0.75;0.40;;;;;;;;;;10317073;28;20506;-59
2021/04/11 22:35:19;;;;;;;0.30;0.30;;;;;;;;;;10315061;28;20079;-58
2021/04/11 22:40:23;;;;;;;1.65;1.02;;;;;;;;;;10320307;28;20028;-58
2021/04/11 22:45:27;;;;;;;0.28;0.28;;;;;;;;;;10313537;28;20037;-59
2021/04/11 22:50:31;;;;;;;0.30;0.30;;;;;;;;;;10306528;28;20423;-59
2021/04/11 22:55:32;;;;;;;4.57;0.40;;;;;;;;;;10317201;28;20052;-58
2021/04/11 23:01:02;;;;;;;0.55;0.45;;;;;;;;;;10325766;28;20079;-61
2021/04/11 23:06:02;;;;;;;2.13;0.43;;;;;;;;;;10293607;28;20033;-59
2021/04/11 23:11:11;;;;;;;1.08;0.52;;;;;;;;;;10298369;28;20040;-62
2021/04/11 23:16:11;;;;;;;2.65;0.50;;;;;;;;;;10281216;28;20033;-61
2021/04/11 23:21:26;;;;;;;0.65;0.30;;;;;;;;;;10285190;28;20422;-61
2021/04/11 23:26:24;;;;;;;2.08;0.70;;;;;;;;;;10283344;28;20991;-60
2021/04/11 23:31:33;;;;;;;3.73;1.13;;;;;;;;;;10285242;28;20040;-59
2021/04/11 23:36:34;;;;;;;2.13;0.68;;;;;;;;;;10281734;28;20210;-62
2021/04/11 23:41:37;;;;;;;3.25;0.77;;;;;;;;;;10317733;28;20065;-61
2021/04/11 23:46:37;;;;;;;2.20;0.60;;;;;;;;;;10296311;28;20573;-61
2021/04/11 23:51:35;;;;;;;1.08;0.50;;;;;;;;;;10284218;28;20045;-59
2021/04/11 23:56:35;;;;;;;1.80;0.47;;;;;;;;;;10281096;28;20373;-61
